Time,TemperatureF,DewpointF,PressureIn,WindDirection,WindDirectionDegrees,WindSpeedMPH,WindSpeedGustMPH,Humidity,HourlyPrecipIn,Conditions,Clouds,dailyrainin,SoftwareType,DateUTC
2013-03-08 00:01:00,22.0,15.0,-100.00,ESE,114,5.0,13.0,75,0.00,,,0.00,,2013-03-08 06:01:00,
2013-03-08 00:11:00,22.0,15.0,-100.00,ESE,114,5.0,13.0,75,0.00,,,0.00,,2013-03-08 06:11:00,
2013-03-08 00:21:00,22.0,15.0,-100.00,ESE,114,5.0,13.0,75,0.00,,,0.00,,2013-03-08 06:21:00,
2013-03-08 00:52:00,21.0,15.0,-100.00,ESE,110,0.0,11.0,77,0.00,,,-99.99,,2013-03-08 06:52:00,
2013-03-08 01:01:00,21.0,15.0,-100.00,ESE,110,0.0,11.0,77,0.00,,,-99.99,,2013-03-08 07:01:00,
2013-03-08 01:11:00,21.0,15.0,-100.00,ESE,110,0.0,11.0,77,0.00,,,-99.99,,2013-03-08 07:11:00,
2013-03-08 01:22:00,21.0,15.0,-100.00,ESE,110,0.0,11.0,77,0.00,,,-99.99,,2013-03-08 07:22:00,
2013-03-08 01:52:00,21.0,15.0,-100.00,ESE,122,0.0,0.0,77,0.00,,,0.00,,2013-03-08 07:52:00,
2013-03-08 02:01:00,21.0,15.0,-100.00,ESE,122,0.0,0.0,77,0.00,,,0.00,,2013-03-08 08:01:00,
2013-03-08 02:11:00,21.0,15.0,-100.00,ESE,122,0.0,0.0,77,0.00,,,0.00,,2013-03-08 08:11:00,
2013-03-08 02:22:00,21.0,15.0,-100.00,ESE,122,0.0,0.0,77,0.00,,,0.00,,2013-03-08 08:22:00,
2013-03-08 02:52:00,10.0,8.0,-100.00,South,190,0.0,12.0,90,0.00,,,0.00,,2013-03-08 08:52:00,
2013-03-08 03:03:00,10.0,8.0,-100.00,South,190,0.0,12.0,90,0.00,,,0.00,,2013-03-08 09:03:00,
2013-03-08 03:11:00,10.0,8.0,-100.00,South,190,0.0,12.0,90,0.00,,,0.00,,2013-03-08 09:11:00,
2013-03-08 03:21:00,10.0,8.0,-100.00,South,190,0.0,12.0,90,0.00,,,0.00,,2013-03-08 09:21:00,
2013-03-08 03:52:00,19.0,14.0,-100.00,ESE,120,3.0,18.0,82,0.00,,,0.00,,2013-03-08 09:52:00,
2013-03-08 04:01:00,19.0,14.0,-100.00,ESE,120,3.0,18.0,82,0.00,,,0.00,,2013-03-08 10:01:00,
2013-03-08 04:11:00,19.0,14.0,-100.00,ESE,120,3.0,18.0,82,0.00,,,0.00,,2013-03-08 10:11:00,
2013-03-08 04:21:00,19.0,14.0,-100.00,ESE,120,3.0,18.0,82,0.00,,,0.00,,2013-03-08 10:21:00,
2013-03-08 04:52:00,10.0,6.0,-100.00,WSW,239,1.0,12.0,84,0.00,,,0.00,,2013-03-08 10:52:00,
2013-03-08 05:01:00,10.0,6.0,-100.00,WSW,239,1.0,12.0,84,0.00,,,0.00,,2013-03-08 11:01:00,
2013-03-08 05:11:00,10.0,6.0,-100.00,WSW,239,1.0,12.0,84,0.00,,,0.00,,2013-03-08 11:11:00,
2013-03-08 05:21:00,10.0,6.0,-100.00,WSW,239,1.0,12.0,84,0.00,,,0.00,,2013-03-08 11:21:00,
2013-03-08 05:52:00,12.0,10.0,-100.00,East,101,2.0,114.0,93,0.00,,,0.00,,2013-03-08 11:52:00,
2013-03-08 06:02:00,12.0,10.0,-100.00,East,101,2.0,114.0,93,0.00,,,0.00,,2013-03-08 12:02:00,
2013-03-08 06:11:00,12.0,10.0,-100.00,East,101,2.0,114.0,93,0.00,,,0.00,,2013-03-08 12:11:00,
2013-03-08 06:22:00,12.0,10.0,-100.00,East,101,2.0,114.0,93,0.00,,,0.00,,2013-03-08 12:22:00,
2013-03-08 06:53:00,21.0,17.0,-100.00,SE,131,4.0,8.0,84,0.00,,,0.00,,2013-03-08 12:53:00,
2013-03-08 07:01:00,21.0,17.0,-100.00,SE,131,4.0,8.0,84,0.00,,,0.00,,2013-03-08 13:01:00,
2013-03-08 07:11:00,21.0,17.0,-100.00,SE,131,4.0,8.0,84,0.00,,,0.00,,2013-03-08 13:11:00,
2013-03-08 07:21:00,21.0,17.0,-100.00,SE,131,4.0,8.0,84,0.00,,,0.00,,2013-03-08 13:21:00,
2013-03-08 07:52:00,24.0,18.0,-100.00,SE,138,0.0,10.0,78,0.00,,,0.00,,2013-03-08 13:52:00,
2013-03-08 08:02:00,24.0,18.0,-100.00,SE,138,0.0,10.0,78,0.00,,,0.00,,2013-03-08 14:02:00,
2013-03-08 08:11:00,24.0,18.0,-100.00,SE,138,0.0,10.0,78,0.00,,,0.00,,2013-03-08 14:11:00,
2013-03-08 08:22:00,24.0,18.0,-100.00,SE,138,0.0,10.0,78,0.00,,,0.00,,2013-03-08 14:22:00,
2013-03-08 08:53:00,26.0,19.0,-100.00,SE,141,0.0,2.0,75,0.00,,,0.00,,2013-03-08 14:53:00,
2013-03-08 09:03:00,26.0,19.0,-100.00,SE,141,0.0,2.0,75,0.00,,,0.00,,2013-03-08 15:03:00,
2013-03-08 09:11:00,26.0,19.0,-100.00,SE,141,0.0,2.0,75,0.00,,,0.00,,2013-03-08 15:11:00,
2013-03-08 09:22:00,26.0,19.0,-100.00,SE,141,0.0,2.0,75,0.00,,,0.00,,2013-03-08 15:22:00,
2013-03-08 09:53:00,30.0,21.0,-100.00,SE,139,0.0,0.0,70,0.00,,,0.00,,2013-03-08 15:53:00,
2013-03-08 10:01:00,30.0,21.0,-100.00,SE,139,0.0,0.0,70,0.00,,,0.00,,2013-03-08 16:01:00,
2013-03-08 10:11:00,30.0,21.0,-100.00,SE,139,0.0,0.0,70,0.00,,,0.00,,2013-03-08 16:11:00,
2013-03-08 10:22:00,30.0,21.0,-100.00,SE,139,0.0,0.0,70,0.00,,,0.00,,2013-03-08 16:22:00,
2013-03-08 10:52:00,35.0,24.0,-100.00,SSE,165,1.0,11.0,64,0.00,,,0.00,,2013-03-08 16:52:00,
2013-03-08 11:02:00,35.0,24.0,-100.00,SSE,165,1.0,11.0,64,0.00,,,0.00,,2013-03-08 17:02:00,
2013-03-08 11:11:00,35.0,24.0,-100.00,SSE,165,1.0,11.0,64,0.00,,,0.00,,2013-03-08 17:11:00,
2013-03-08 11:21:00,35.0,24.0,-100.00,SSE,165,1.0,11.0,64,0.00,,,0.00,,2013-03-08 17:21:00,
2013-03-08 11:52:00,36.0,24.0,-100.00,South,180,0.0,11.0,62,0.00,,,0.00,,2013-03-08 17:52:00,
2013-03-08 12:02:00,36.0,24.0,-100.00,South,180,0.0,11.0,62,0.00,,,0.00,,2013-03-08 18:02:00,
2013-03-08 12:11:00,36.0,24.0,-100.00,South,180,0.0,11.0,62,0.00,,,0.00,,2013-03-08 18:11:00,
2013-03-08 12:21:00,36.0,24.0,-100.00,South,180,0.0,11.0,62,0.00,,,0.00,,2013-03-08 18:21:00,
2013-03-08 12:52:00,38.0,25.0,-100.00,South,187,0.0,2.0,58,0.00,,,0.00,,2013-03-08 18:52:00,
2013-03-08 13:01:00,38.0,25.0,-100.00,South,187,0.0,2.0,58,0.00,,,0.00,,2013-03-08 19:01:00,
2013-03-08 13:11:00,38.0,25.0,-100.00,South,187,0.0,2.0,58,0.00,,,0.00,,2013-03-08 19:11:00,
2013-03-08 13:22:00,38.0,25.0,-100.00,South,187,0.0,2.0,58,0.00,,,0.00,,2013-03-08 19:22:00,
2013-03-08 13:52:00,40.0,25.0,-100.00,SSW,200,0.0,9.0,55,0.00,,,0.00,,2013-03-08 19:52:00,
2013-03-08 14:01:00,40.0,25.0,-100.00,SSW,200,0.0,9.0,55,0.00,,,0.00,,2013-03-08 20:01:00,
2013-03-08 14:11:00,40.0,25.0,-100.00,SSW,200,0.0,9.0,55,0.00,,,0.00,,2013-03-08 20:11:00,
2013-03-08 14:21:00,40.0,25.0,-100.00,SSW,200,0.0,9.0,55,0.00,,,0.00,,2013-03-08 20:21:00,
2013-03-08 14:53:00,40.0,26.0,-100.00,SSW,208,0.0,0.0,56,0.00,,,0.00,,2013-03-08 20:53:00,
2013-03-08 15:02:00,40.0,26.0,-100.00,SSW,208,0.0,0.0,56,0.00,,,0.00,,2013-03-08 21:02:00,
2013-03-08 15:11:00,40.0,26.0,-100.00,SSW,208,0.0,0.0,56,0.00,,,0.00,,2013-03-08 21:11:00,
2013-03-08 15:21:00,40.0,26.0,-100.00,SSW,208,0.0,0.0,56,0.00,,,0.00,,2013-03-08 21:21:00,
2013-03-08 15:52:00,40.0,26.0,-100.00,SSW,209,0.0,0.0,57,0.00,,,0.00,,2013-03-08 21:52:00,
2013-03-08 16:01:00,40.0,26.0,-100.00,SSW,209,0.0,0.0,57,0.00,,,0.00,,2013-03-08 22:01:00,
2013-03-08 16:11:00,40.0,26.0,-100.00,SSW,209,0.0,0.0,57,0.00,,,0.00,,2013-03-08 22:11:00,
2013-03-08 16:22:00,40.0,26.0,-100.00,SSW,209,0.0,0.0,57,0.00,,,0.00,,2013-03-08 22:22:00,
2013-03-08 16:53:00,39.0,25.0,-100.00,SSW,210,0.0,2.0,58,0.00,,,0.00,,2013-03-08 22:53:00,
2013-03-08 17:01:00,39.0,25.0,-100.00,SSW,210,0.0,2.0,58,0.00,,,0.00,,2013-03-08 23:01:00,
2013-03-08 17:12:00,39.0,25.0,-100.00,SSW,210,0.0,2.0,58,0.00,,,0.00,,2013-03-08 23:12:00,
2013-03-08 17:21:00,39.0,25.0,-100.00,SSW,210,0.0,2.0,58,0.00,,,0.00,,2013-03-08 23:21:00,
2013-03-08 17:53:00,36.0,26.0,-100.00,SSW,212,2.0,10.0,66,0.00,,,0.00,,2013-03-08 23:53:00,
2013-03-08 18:02:00,36.0,26.0,-100.00,SSW,212,2.0,10.0,66,0.00,,,0.00,,2013-03-09 00:02:00,
2013-03-08 18:11:00,36.0,26.0,-100.00,SSW,212,2.0,10.0,66,0.00,,,0.00,,2013-03-09 00:11:00,
2013-03-08 18:22:00,36.0,26.0,-100.00,SSW,212,2.0,10.0,66,0.00,,,0.00,,2013-03-09 00:22:00,
2013-03-08 18:52:00,31.0,25.0,-100.00,SE,139,3.0,10.0,78,0.00,,,0.00,,2013-03-09 00:52:00,
2013-03-08 19:01:00,31.0,25.0,-100.00,SE,139,3.0,10.0,78,0.00,,,0.00,,2013-03-09 01:01:00,
2013-03-08 19:12:00,31.0,25.0,-100.00,SE,139,3.0,10.0,78,0.00,,,0.00,,2013-03-09 01:12:00,
2013-03-08 19:22:00,31.0,25.0,-100.00,SE,139,3.0,10.0,78,0.00,,,0.00,,2013-03-09 01:22:00,
2013-03-08 21:52:00,29.0,25.0,-100.00,SSE,148,7.0,16.0,86,-99.99,,,0.00,,2013-03-09 03:52:00,
2013-03-08 22:01:00,29.0,25.0,-100.00,SSE,148,7.0,16.0,86,-99.99,,,0.00,,2013-03-09 04:01:00,
2013-03-08 22:11:00,29.0,25.0,-100.00,SSE,148,7.0,16.0,86,-99.99,,,0.00,,2013-03-09 04:11:00,
2013-03-08 22:22:00,29.0,25.0,-100.00,SSE,148,7.0,16.0,86,-99.99,,,0.00,,2013-03-09 04:22:00,
2013-03-08 22:52:00,29.0,24.0,-100.00,SSE,152,9.0,13.0,81,0.00,,,0.00,,2013-03-09 04:52:00,
2013-03-08 23:02:00,29.0,24.0,-100.00,SSE,152,9.0,13.0,81,0.00,,,0.00,,2013-03-09 05:02:00,
2013-03-08 23:12:00,29.0,24.0,-100.00,SSE,152,9.0,13.0,81,0.00,,,0.00,,2013-03-09 05:12:00,
2013-03-08 23:22:00,29.0,24.0,-100.00,SSE,152,9.0,13.0,81,0.00,,,0.00,,2013-03-09 05:22:00,
2013-03-08 23:53:00,28.0,23.0,-100.00,SE,144,8.0,16.0,80,0.00,,,0.00,,2013-03-09 05:53:00,